ENSD/SDN METAR and TAF weather

Enter ICAO airport designator
Station Type Date Time Source
ENSD METAR 2024/06/14 21:50 UTC NOAA

ENSD 142150Z AUTO VRB03KT 9999 NCD 13/09 Q1008 RMK WIND RWY 26 09002KT WIND 1140FT 30004KT


Station Type Date Time Source
ENSD Decoded METAR 2024/06/14 21:50 UTC NOAA

Sandane / Anda, Norway (ENSD) 61-50N 006-07E 60M
Jun 14, 2024 - 05:50 PM EDT / 2024.06.14 2150 UTC
Wind: Variable at 3 MPH (3 KT):0
Visibility: greater than 7 mile(s):0
Temperature: 55 F (13 C)
Dew Point: 48 F (9 C)
Relative Humidity: 76%
Pressure (altimeter): 29.77 in. Hg (1008 hPa)
ob: ENSD 142150Z AUTO VRB03KT 9999 NCD 13/09 Q1008 RMK WIND RWY 26 09002KT WIND 1140FT 30004KT
cycle: 22

Station Type Date Time Source
ENSD TAF UTC NOAA

Error!

Example: see airport list